createdAt,value
2019-06-08T00:02:23.008Z,1.13
2019-06-08T00:04:52.512Z,1.03
2019-06-08T00:07:23.115Z,1.13
2019-06-08T00:09:52.682Z,1.00
2019-06-08T00:12:23.246Z,1.10
2019-06-08T00:14:52.937Z,1.30
2019-06-08T00:17:35.836Z,1.40
2019-06-08T00:19:53.733Z,1.27
2019-06-08T00:22:23.880Z,1.20
2019-06-08T00:24:53.484Z,1.10
2019-06-08T00:27:23.361Z,1.33
2019-06-08T00:29:54.035Z,1.13
2019-06-08T00:32:24.518Z,0.70
2019-06-08T00:34:54.061Z,1.20
2019-06-08T00:37:24.909Z,1.10
2019-06-08T00:39:54.495Z,1.23
2019-06-08T00:42:25.392Z,1.43
2019-06-08T00:44:55.108Z,0.90
2019-06-08T00:47:24.782Z,1.17
2019-06-08T00:49:54.310Z,1.30
2019-06-08T00:52:25.481Z,0.87
2019-06-08T00:54:55.090Z,1.37
2019-06-08T00:57:25.943Z,1.30
2019-06-08T00:59:55.599Z,1.00
2019-06-08T01:02:26.657Z,1.20
2019-06-08T01:04:56.384Z,0.90
2019-06-08T01:07:26.273Z,1.30
2019-06-08T01:09:55.785Z,1.03
2019-06-08T01:12:26.740Z,1.00
2019-06-08T01:14:56.500Z,1.20
2019-06-08T01:17:27.526Z,1.13
2019-06-08T01:19:57.246Z,1.23
2019-06-08T01:22:27.732Z,1.20
2019-06-08T01:24:57.297Z,1.10
2019-06-08T01:27:28.133Z,1.13
2019-06-08T01:29:57.736Z,1.00
2019-06-08T01:32:28.476Z,1.10
2019-06-08T01:34:58.021Z,1.40
2019-06-08T01:37:27.526Z,1.20
2019-06-08T01:39:57.086Z,1.13
2019-06-08T01:42:27.697Z,1.00
2019-06-08T01:44:57.406Z,1.10
2019-06-08T01:47:28.199Z,1.17
2019-06-08T01:49:57.798Z,0.93
2019-06-08T01:52:28.743Z,1.10
2019-06-08T01:54:58.337Z,0.90
2019-06-08T01:57:29.267Z,1.30
2019-06-08T01:59:58.860Z,1.33
2019-06-08T02:02:28.373Z,1.03
2019-06-08T02:04:57.889Z,1.53
2019-06-08T02:07:28.405Z,1.10
2019-06-08T02:09:57.981Z,1.10
2019-06-08T02:12:28.789Z,1.23
2019-06-08T02:14:58.419Z,1.10
2019-06-08T02:17:27.887Z,1.17
2019-06-08T02:19:57.376Z,0.90
2019-06-08T02:22:26.878Z,1.10
2019-06-08T02:24:56.436Z,1.20
2019-06-08T02:27:27.214Z,1.37
2019-06-08T02:29:57.376Z,1.20
2019-06-08T02:32:28.622Z,0.97
2019-06-08T02:34:58.147Z,1.10
2019-06-08T02:37:28.688Z,1.03
2019-06-08T02:39:58.286Z,1.10
2019-06-08T02:42:28.505Z,1.07
2019-06-08T02:44:59.059Z,1.17
2019-06-08T02:47:30.326Z,1.20
2019-06-08T02:49:59.989Z,1.13
2019-06-08T02:52:31.792Z,1.20
2019-06-08T02:55:01.425Z,1.40
2019-06-08T02:57:33.104Z,1.27
2019-06-08T03:00:02.927Z,1.57
2019-06-08T03:02:36.266Z,1.00
2019-06-08T03:05:05.927Z,1.10
2019-06-08T03:07:38.965Z,1.20
2019-06-08T03:10:09.171Z,1.40
2019-06-08T03:12:42.243Z,1.60
2019-06-08T03:15:10.790Z,1.20
2019-06-08T03:17:42.080Z,1.50
2019-06-08T03:20:11.920Z,1.23
2019-06-08T03:22:43.846Z,1.53
2019-06-08T03:25:12.758Z,1.17
2019-06-08T03:27:43.221Z,1.40
2019-06-08T03:30:19.046Z,1.10
2019-06-08T03:32:50.673Z,1.23
2019-06-08T03:35:15.558Z,1.70
2019-06-08T03:37:45.070Z,1.10
2019-06-08T03:40:14.837Z,1.10
2019-06-08T03:42:44.533Z,1.10
2019-06-08T03:45:14.576Z,1.30
2019-06-08T03:47:45.636Z,1.20
2019-06-08T03:50:15.430Z,1.40
2019-06-08T03:52:46.302Z,1.20
2019-06-08T03:55:16.069Z,1.20
2019-06-08T03:57:46.308Z,1.20
2019-06-08T04:00:16.189Z,1.30
2019-06-08T04:02:46.729Z,1.37
2019-06-08T04:05:16.395Z,1.30
2019-06-08T04:07:46.539Z,1.37
2019-06-08T04:10:16.392Z,1.20
2019-06-08T04:12:46.220Z,1.10
2019-06-08T04:15:16.528Z,1.47
2019-06-08T04:17:46.422Z,1.60
2019-06-08T04:20:16.653Z,1.30
2019-06-08T04:22:47.150Z,1.63
2019-06-08T04:25:17.246Z,1.30
2019-06-08T04:27:47.064Z,1.20
2019-06-08T04:30:16.950Z,1.43
2019-06-08T04:32:47.578Z,1.30
2019-06-08T04:35:17.903Z,1.20
2019-06-08T04:37:47.478Z,1.23
2019-06-08T04:40:17.054Z,1.30
2019-06-08T04:42:50.486Z,1.40
2019-06-08T04:45:18.975Z,1.27
2019-06-08T04:47:50.166Z,1.10
2019-06-08T04:50:23.583Z,1.50
2019-06-08T04:52:50.949Z,1.17
2019-06-08T04:55:20.528Z,1.50
2019-06-08T04:57:50.823Z,1.20
2019-06-08T05:00:20.782Z,1.37
2019-06-08T05:02:51.165Z,1.00
2019-06-08T05:05:20.842Z,1.27
2019-06-08T05:07:50.582Z,1.20
2019-06-08T05:10:20.907Z,1.10
2019-06-08T05:12:50.476Z,1.40
2019-06-08T05:15:20.084Z,1.40
2019-06-08T05:17:49.814Z,1.27
2019-06-08T05:20:19.524Z,1.20
2019-06-08T05:22:49.761Z,1.20
2019-06-08T05:25:19.573Z,1.33
2019-06-08T05:27:49.599Z,1.30
2019-06-08T05:30:19.322Z,1.13
2019-06-08T05:32:49.637Z,1.30
2019-06-08T05:35:19.295Z,1.03
2019-06-08T05:37:49.835Z,1.10
2019-06-08T05:40:19.701Z,1.00
2019-06-08T05:42:49.970Z,1.30
2019-06-08T05:45:20.091Z,1.00
2019-06-08T05:47:50.140Z,1.30
2019-06-08T05:50:19.805Z,1.50
2019-06-08T05:52:50.292Z,1.20
2019-06-08T05:55:20.074Z,1.13
2019-06-08T05:57:50.545Z,1.17
2019-06-08T06:00:21.356Z,1.17
2019-06-08T06:02:51.041Z,1.23
2019-06-08T06:05:20.830Z,1.20
2019-06-08T06:07:51.202Z,1.20
2019-06-08T06:10:20.956Z,1.07
2019-06-08T06:12:51.162Z,1.30
2019-06-08T06:15:20.805Z,1.20
2019-06-08T06:17:51.586Z,1.40
2019-06-08T06:20:21.297Z,1.10
2019-06-08T06:22:52.558Z,1.30
2019-06-08T06:25:22.501Z,1.30
2019-06-08T06:27:52.725Z,1.23
2019-06-08T06:30:22.611Z,1.47
2019-06-08T06:32:52.157Z,1.27
2019-06-08T06:35:21.745Z,1.40
2019-06-08T06:37:52.096Z,1.23
2019-06-08T06:40:21.812Z,1.67
2019-06-08T06:42:52.377Z,1.53
2019-06-08T06:45:21.981Z,1.33
2019-06-08T06:47:52.693Z,1.23
2019-06-08T06:50:22.425Z,1.40
2019-06-08T06:52:52.946Z,1.00
2019-06-08T06:55:25.372Z,1.10
2019-06-08T06:57:53.772Z,1.27
2019-06-08T07:00:32.881Z,1.10
2019-06-08T07:03:02.492Z,1.30
2019-06-08T07:05:32.069Z,1.70
2019-06-08T07:08:01.565Z,1.47
2019-06-08T07:10:31.133Z,1.47
2019-06-08T07:13:01.051Z,1.43
2019-06-08T07:15:30.717Z,1.47
2019-06-08T07:18:00.498Z,1.50
2019-06-08T07:20:29.978Z,1.20
2019-06-08T07:22:59.548Z,1.40
2019-06-08T07:25:29.546Z,1.53
2019-06-08T07:27:59.361Z,1.10
2019-06-08T07:30:28.912Z,1.53
2019-06-08T07:32:59.396Z,1.23
2019-06-08T07:35:29.313Z,1.27
2019-06-08T07:37:59.746Z,1.20
2019-06-08T07:40:29.469Z,1.50
2019-06-08T07:43:00.285Z,1.77
2019-06-08T07:45:29.987Z,1.40
2019-06-08T07:48:00.606Z,1.77
2019-06-08T07:50:30.228Z,1.83
2019-06-08T07:52:59.805Z,1.50
2019-06-08T07:55:29.293Z,1.70
2019-06-08T07:58:00.259Z,1.33
2019-06-08T08:00:29.968Z,1.47
2019-06-08T08:02:59.636Z,1.57
2019-06-08T08:05:29.208Z,1.70
2019-06-08T08:07:59.071Z,1.60
2019-06-08T08:10:28.632Z,1.17
2019-06-08T08:12:58.945Z,1.50
2019-06-08T08:15:28.739Z,1.63
2019-06-08T08:17:59.548Z,1.60
2019-06-08T08:21:21.779Z,1.63
2019-06-08T08:24:11.427Z,1.60
2019-06-08T08:26:40.977Z,1.50
2019-06-08T08:29:10.521Z,1.83
2019-06-08T08:31:40.040Z,1.57
2019-06-08T08:34:09.540Z,2.73
2019-06-08T08:36:39.052Z,1.70
2019-06-08T08:39:08.789Z,1.43
2019-06-08T08:41:39.078Z,1.77
2019-06-08T08:44:08.774Z,2.03
2019-06-08T08:46:38.817Z,1.57
2019-06-08T08:49:12.331Z,2.17
2019-06-08T08:51:39.790Z,1.70
2019-06-08T08:54:09.355Z,1.90
2019-06-08T08:56:38.983Z,1.37
2019-06-08T08:59:10.821Z,1.60
2019-06-08T09:01:39.716Z,1.93
2019-06-08T09:04:09.310Z,1.60
2019-06-08T09:06:39.003Z,1.67
2019-06-08T09:09:09.036Z,2.30
2019-06-08T09:11:41.220Z,1.60
2019-06-08T09:14:14.155Z,1.70
2019-06-08T09:16:41.277Z,2.00
2019-06-08T09:19:10.819Z,1.40
2019-06-08T09:21:40.297Z,1.80
2019-06-08T09:24:10.080Z,1.63
2019-06-08T09:26:39.736Z,1.70
2019-06-08T09:29:11.261Z,1.70
2019-06-08T09:31:40.503Z,1.63
2019-06-08T09:34:14.986Z,2.00
2019-06-08T09:36:41.385Z,1.90
2019-06-08T09:39:12.865Z,1.67
2019-06-08T09:41:42.157Z,1.23
2019-06-08T09:44:12.113Z,1.60
2019-06-08T09:46:41.892Z,1.60
2019-06-08T09:49:12.106Z,1.77
2019-06-08T09:51:41.731Z,1.60
2019-06-08T09:54:12.776Z,1.37
2019-06-08T09:56:42.752Z,1.80
2019-06-08T09:59:15.175Z,1.27
2019-06-08T10:01:43.482Z,1.30
2019-06-08T10:04:13.914Z,1.60
2019-06-08T10:06:43.584Z,2.00
2019-06-08T10:09:13.547Z,1.50
2019-06-08T10:11:44.307Z,1.40
2019-06-08T10:14:13.855Z,1.70
2019-06-08T10:16:43.373Z,1.40
2019-06-08T10:19:12.875Z,1.50
2019-06-08T10:21:43.269Z,1.10
2019-06-08T10:24:12.977Z,1.50
2019-06-08T10:26:42.444Z,1.40
2019-06-08T10:29:12.037Z,1.53
2019-06-08T10:31:43.633Z,1.47
2019-06-08T10:34:12.878Z,1.50
2019-06-08T10:36:42.489Z,1.30
2019-06-08T10:39:12.280Z,1.30
2019-06-08T10:41:41.951Z,1.43
2019-06-08T10:44:13.955Z,1.70
2019-06-08T10:46:42.813Z,1.70
2019-06-08T10:49:14.438Z,1.40
2019-06-08T10:51:43.759Z,1.37
2019-06-08T10:54:13.350Z,1.60
2019-06-08T10:56:42.949Z,1.63
2019-06-08T10:59:12.739Z,1.37
2019-06-08T11:01:42.452Z,1.47
2019-06-08T11:04:12.296Z,1.50
2019-06-08T11:06:41.921Z,1.47
2019-06-08T11:09:14.341Z,1.40
2019-06-08T11:11:42.765Z,1.70
2019-06-08T11:14:13.379Z,1.20
2019-06-08T11:16:43.409Z,1.50
2019-06-08T11:19:13.950Z,1.50
2019-06-08T11:21:43.910Z,1.43
2019-06-08T11:24:23.683Z,1.30
2019-06-08T11:26:47.705Z,1.37
2019-06-08T11:29:18.431Z,1.20
2019-06-08T11:31:48.415Z,1.53
2019-06-08T11:34:21.830Z,1.50
2019-06-08T11:36:51.575Z,1.40
2019-06-08T11:39:21.511Z,1.33
2019-06-08T11:41:51.092Z,1.90
2019-06-08T11:44:20.585Z,2.20
2019-06-08T11:46:50.113Z,1.60
2019-06-08T11:49:19.603Z,1.43
2019-06-08T11:51:49.241Z,1.50
2019-06-08T11:54:32.998Z,1.50
2019-06-08T11:56:52.177Z,1.43
2019-06-08T11:59:21.850Z,1.83
2019-06-08T12:01:51.335Z,1.63
2019-06-08T12:04:20.861Z,2.10
2019-06-08T12:06:50.356Z,1.70
2019-06-08T12:09:19.845Z,1.63
2019-06-08T12:11:49.346Z,1.30
2019-06-08T12:14:18.839Z,1.80
2019-06-08T12:16:48.689Z,1.80
2019-06-08T12:19:20.799Z,1.60
2019-06-08T12:21:49.846Z,1.77
2019-06-08T12:24:19.547Z,1.40
2019-06-08T12:26:52.673Z,1.83
2019-06-08T12:29:20.347Z,1.63
2019-06-08T12:31:49.848Z,1.47
2019-06-08T12:34:19.373Z,1.50
2019-06-08T12:36:48.881Z,1.60
2019-06-08T12:39:19.728Z,1.70
2019-06-08T12:41:49.645Z,1.30
2019-06-08T12:44:21.794Z,1.30
2019-06-08T12:46:50.417Z,1.40
2019-06-08T12:49:20.478Z,1.50
2019-06-08T12:51:51.722Z,1.30
2019-06-08T12:54:21.469Z,1.50
2019-06-08T12:56:50.959Z,1.80
2019-06-08T12:59:22.789Z,1.80
2019-06-08T13:01:51.731Z,1.50
2019-06-08T13:04:23.457Z,1.53
2019-06-08T13:06:52.516Z,1.40
2019-06-08T13:09:22.087Z,1.80
2019-06-08T13:11:51.599Z,1.40
2019-06-08T13:14:21.124Z,1.07
2019-06-08T13:16:52.941Z,1.43
2019-06-08T13:19:21.870Z,1.60
2019-06-08T13:21:51.352Z,1.40
2019-06-08T13:24:20.859Z,1.47
2019-06-08T13:26:50.871Z,1.50
2019-06-08T13:29:22.057Z,2.27
2019-06-08T13:31:51.694Z,1.57
2019-06-08T13:34:24.086Z,1.60
2019-06-08T13:36:52.422Z,1.50
2019-06-08T13:39:23.105Z,1.60
2019-06-08T13:41:52.880Z,1.40
2019-06-08T13:44:22.391Z,1.33
2019-06-08T13:46:51.982Z,1.57
2019-06-08T13:49:26.708Z,1.70
2019-06-08T13:51:52.672Z,1.70
2019-06-08T13:54:23.050Z,1.97
2019-06-08T13:56:53.397Z,1.40
2019-06-08T13:59:26.445Z,1.80
2019-06-08T14:01:54.203Z,1.57
2019-06-08T14:04:24.905Z,1.70
2019-06-08T14:06:54.654Z,1.63
2019-06-08T14:09:25.035Z,1.37
2019-06-08T14:11:54.589Z,1.60
2019-06-08T14:14:24.663Z,1.30
2019-06-08T14:16:55.269Z,1.50
2019-06-08T14:19:26.109Z,1.70
2019-06-08T14:21:56.141Z,1.70
2019-06-08T14:24:29.933Z,1.50
2019-06-08T14:26:58.441Z,1.50
2019-06-08T14:29:28.984Z,1.70
2019-06-08T14:31:59.251Z,1.30
2019-06-08T14:34:29.859Z,1.87
2019-06-08T14:37:00.100Z,1.60
2019-06-08T14:39:31.693Z,1.50
2019-06-08T14:42:00.976Z,1.67
2019-06-08T14:44:32.119Z,1.40
2019-06-08T14:47:13.740Z,2.00
2019-06-08T14:49:48.803Z,1.40
2019-06-08T14:52:20.249Z,1.40
2019-06-08T14:54:51.162Z,1.80
2019-06-08T14:57:21.255Z,1.50
2019-06-08T14:59:50.919Z,1.50
2019-06-08T15:02:21.186Z,1.80
2019-06-08T15:04:50.842Z,1.40
2019-06-08T15:07:23.217Z,1.23
2019-06-08T15:09:51.694Z,1.80
2019-06-08T15:12:21.483Z,1.23
2019-06-08T15:14:51.165Z,1.67
2019-06-08T15:17:21.853Z,1.50
2019-06-08T15:19:51.390Z,1.80
2019-06-08T15:22:22.292Z,1.80
2019-06-08T15:24:51.859Z,1.50
2019-06-08T15:27:24.432Z,1.57
2019-06-08T15:29:52.747Z,1.57
2019-06-08T15:32:22.960Z,2.00
2019-06-08T15:34:52.594Z,1.70
2019-06-08T15:37:23.157Z,1.60
2019-06-08T15:39:52.670Z,1.50
2019-06-08T15:42:22.535Z,1.60
2019-06-08T15:44:52.104Z,1.53
2019-06-08T15:47:22.182Z,1.20
2019-06-08T15:49:51.780Z,1.87
2019-06-08T15:52:22.350Z,1.60
2019-06-08T15:54:51.917Z,1.30
2019-06-08T15:57:22.730Z,1.60
2019-06-08T15:59:52.620Z,1.53
2019-06-08T16:02:23.076Z,1.50
2019-06-08T16:04:53.041Z,1.40
2019-06-08T16:07:27.686Z,1.73
2019-06-08T16:09:53.980Z,1.40
2019-06-08T16:12:24.279Z,1.40
2019-06-08T16:14:53.908Z,1.30
2019-06-08T16:17:23.489Z,1.50
2019-06-08T16:19:53.347Z,1.50
2019-06-08T16:22:23.028Z,1.60
2019-06-08T16:24:52.537Z,1.20
2019-06-08T16:27:22.087Z,1.43
2019-06-08T16:29:51.585Z,1.23
2019-06-08T16:32:21.176Z,1.50
2019-06-08T16:34:50.753Z,1.60
2019-06-08T16:37:20.298Z,1.20
2019-06-08T16:39:49.812Z,1.80
2019-06-08T16:42:19.308Z,1.60
2019-06-08T16:44:48.811Z,1.50
2019-06-08T16:47:18.315Z,1.50
2019-06-08T16:49:47.824Z,1.30
2019-06-08T16:52:17.458Z,1.30
2019-06-08T16:54:46.982Z,1.20
2019-06-08T16:57:16.465Z,1.57
2019-06-08T16:59:45.985Z,1.67
2019-06-08T17:02:16.929Z,1.77
2019-06-08T17:04:46.671Z,1.70
2019-06-08T17:07:16.245Z,1.20
2019-06-08T17:09:45.825Z,1.60
2019-06-08T17:12:15.406Z,1.53
2019-06-08T17:14:44.984Z,1.67
2019-06-08T17:17:14.478Z,1.50
2019-06-08T17:19:44.022Z,1.97
2019-06-08T17:22:13.868Z,1.60
2019-06-08T17:24:43.428Z,1.40
2019-06-08T17:27:26.365Z,1.50
2019-06-08T17:29:44.118Z,1.63
2019-06-08T17:32:13.698Z,1.30
2019-06-08T17:34:43.259Z,1.90
2019-06-08T17:37:12.760Z,1.83
2019-06-08T17:39:42.792Z,1.70
2019-06-08T17:42:12.389Z,1.83
2019-06-08T17:44:42.603Z,1.70
2019-06-08T17:47:12.293Z,1.93
2019-06-08T17:49:43.211Z,1.40
2019-06-08T17:52:12.971Z,1.80
2019-06-08T17:54:43.283Z,1.90
2019-06-08T17:57:12.958Z,1.90
2019-06-08T17:59:42.770Z,1.53
2019-06-08T18:02:18.921Z,1.40
2019-06-08T18:04:44.521Z,1.40
2019-06-08T18:07:14.128Z,1.70
2019-06-08T18:09:45.088Z,1.40
2019-06-08T18:12:14.726Z,1.60
2019-06-08T18:14:45.171Z,2.10
2019-06-08T18:17:17.730Z,1.20
2019-06-08T18:19:49.528Z,1.80
2019-06-08T18:22:18.662Z,2.00
2019-06-08T18:24:48.344Z,1.50
2019-06-08T18:27:18.310Z,1.73
2019-06-08T18:29:48.676Z,1.40
2019-06-08T18:32:18.473Z,1.90
2019-06-08T18:34:48.154Z,1.73
2019-06-08T18:37:18.339Z,1.60
2019-06-08T18:39:49.426Z,2.40
2019-06-08T18:42:19.732Z,1.80
2019-06-08T18:44:49.315Z,2.20
2019-06-08T18:47:18.855Z,2.33
2019-06-08T18:49:48.877Z,2.27
2019-06-08T18:52:18.515Z,1.80
2019-06-08T18:54:49.689Z,1.73
2019-06-08T18:57:19.540Z,1.67
2019-06-08T18:59:52.958Z,1.63
2019-06-08T19:02:20.335Z,1.67
2019-06-08T19:04:49.914Z,2.00
2019-06-08T19:07:19.480Z,2.60
2019-06-08T19:09:49.773Z,2.80
2019-06-08T19:12:19.802Z,3.00
2019-06-08T19:14:52.149Z,3.77
2019-06-08T19:17:21.180Z,3.53
2019-06-08T19:19:52.293Z,2.40
2019-06-08T19:22:22.362Z,2.50
2019-06-08T19:24:51.852Z,2.70
2019-06-08T19:27:21.512Z,2.17
2019-06-08T19:29:51.671Z,2.43
2019-06-08T19:32:21.487Z,2.30
2019-06-08T19:34:53.885Z,2.47
2019-06-08T19:37:22.276Z,2.10
2019-06-08T19:39:51.781Z,2.67
2019-06-08T19:42:35.605Z,2.77
2019-06-08T19:45:01.562Z,3.50
2019-06-08T19:47:23.785Z,3.13
2019-06-08T19:49:54.878Z,3.10
2019-06-08T19:52:24.577Z,2.70
2019-06-08T19:54:54.246Z,3.57
2019-06-08T19:57:23.750Z,3.13
2019-06-08T19:59:53.237Z,2.80
2019-06-08T20:02:22.796Z,2.83
2019-06-08T20:04:53.264Z,2.20
2019-06-08T20:07:23.304Z,3.00
2019-06-08T20:09:53.908Z,2.93
2019-06-08T20:12:23.604Z,4.10
2019-06-08T20:14:53.807Z,4.10
2019-06-08T20:17:23.303Z,3.50
2019-06-08T20:19:53.428Z,3.67
2019-06-08T20:22:23.094Z,3.57
2019-06-08T20:24:55.768Z,2.80
2019-06-08T20:27:24.653Z,2.50
2019-06-08T20:29:54.279Z,2.67
2019-06-08T20:32:23.810Z,2.87
2019-06-08T20:34:53.755Z,2.67
2019-06-08T20:37:23.387Z,2.73
2019-06-08T20:40:03.007Z,2.73
2019-06-08T20:42:24.223Z,2.80
2019-06-08T20:44:53.871Z,2.77
2019-06-08T20:47:23.347Z,3.00
2019-06-08T20:49:53.456Z,2.97
2019-06-08T20:52:23.108Z,2.73
2019-06-08T20:54:53.559Z,2.73
2019-06-08T20:57:23.265Z,2.73
2019-06-08T20:59:54.016Z,2.70
2019-06-08T21:02:23.961Z,2.97
2019-06-08T21:04:54.907Z,3.00
2019-06-08T21:07:24.706Z,3.43
2019-06-08T21:09:55.363Z,2.87
2019-06-08T21:12:25.503Z,2.80
2019-06-08T21:14:55.526Z,3.07
2019-06-08T21:17:27.369Z,3.17
2019-06-08T21:19:57.891Z,2.97
2019-06-08T21:22:27.908Z,3.10
2019-06-08T21:25:00.008Z,2.97
2019-06-08T21:27:28.767Z,3.63
2019-06-08T21:30:06.735Z,3.63
2019-06-08T21:32:29.565Z,3.30
2019-06-08T21:35:00.257Z,3.00
2019-06-08T21:37:29.986Z,3.20
2019-06-08T21:40:03.919Z,2.70
2019-06-08T21:42:30.690Z,2.97
2019-06-08T21:45:02.186Z,2.63
2019-06-08T21:47:31.405Z,2.00
2019-06-08T21:50:00.976Z,2.50
2019-06-08T21:52:30.492Z,2.70
2019-06-08T21:55:00.636Z,2.40
2019-06-08T21:57:30.333Z,2.30
2019-06-08T22:00:19.204Z,2.60
2019-06-08T22:02:31.027Z,2.50
2019-06-08T22:05:03.316Z,2.73
2019-06-08T22:07:31.824Z,2.40
2019-06-08T22:10:02.804Z,2.03
2019-06-08T22:12:32.424Z,2.53
2019-06-08T22:15:03.095Z,2.50
2019-06-08T22:17:32.707Z,2.30
2019-06-08T22:20:03.460Z,2.13
2019-06-08T22:22:33.077Z,2.20
2019-06-08T22:25:03.691Z,2.80
2019-06-08T22:27:33.241Z,2.40
2019-06-08T22:30:09.555Z,2.80
2019-06-08T22:32:34.377Z,2.30
2019-06-08T22:35:04.089Z,2.30
2019-06-08T22:37:33.589Z,2.43
2019-06-08T22:40:03.652Z,2.17
2019-06-08T22:42:33.264Z,2.20
2019-06-08T22:45:03.900Z,2.50
2019-06-08T22:47:33.552Z,2.27
2019-06-08T22:50:03.768Z,2.30
2019-06-08T22:52:33.418Z,2.53
2019-06-08T22:55:07.037Z,2.80
2019-06-08T22:57:34.202Z,2.20
2019-06-08T23:00:14.566Z,2.50
2019-06-08T23:02:35.098Z,2.30
2019-06-08T23:05:06.467Z,2.40
2019-06-08T23:07:37.436Z,2.30
2019-06-08T23:10:08.877Z,2.60
2019-06-08T23:12:38.738Z,2.50
2019-06-08T23:15:09.153Z,2.67
2019-06-08T23:17:39.021Z,2.70
2019-06-08T23:20:08.993Z,2.40
2019-06-08T23:22:38.824Z,2.50
2019-06-08T23:25:09.612Z,2.47
2019-06-08T23:27:39.229Z,2.47
2019-06-08T23:30:10.328Z,2.60
2019-06-08T23:32:39.973Z,2.27
2019-06-08T23:35:09.795Z,2.37
2019-06-08T23:37:39.432Z,2.50
2019-06-08T23:40:09.089Z,3.20
2019-06-08T23:42:38.663Z,2.77
2019-06-08T23:45:10.510Z,3.00
2019-06-08T23:47:39.707Z,2.20
2019-06-08T23:50:11.478Z,2.23
2019-06-08T23:52:41.158Z,2.00
2019-06-08T23:55:11.941Z,2.27
2019-06-08T23:57:41.654Z,2.33
